Time;durP1;ratioP1;P1;durP2;ratioP2;P2;SDS_P1;SDS_P2;PMS_P1;PMS_P2;Temp;Humidity;BMP_temperature;BMP_pressure;BME280_temperature;BME280_humidity;BME280_pressure;Samples;Min_cycle;Max_cycle;Signal;HPM_P1;HPM_P2
2022/02/21 00:02:09;;;;;;;0.00;0.00;;;10.50;99.90;;;;;;5049856;28;20037;-70
2022/02/21 00:04:35;;;;;;;0.00;0.00;;;10.40;99.90;;;;;;5051068;28;20082;-70
2022/02/21 00:07:01;;;;;;;0.00;0.00;;;10.40;99.90;;;;;;5051032;28;20108;-70
2022/02/21 00:09:27;;;;;;;0.98;0.95;;;10.30;99.90;;;;;;5050679;28;20446;-71
2022/02/21 00:11:54;;;;;;;0.00;0.00;;;10.40;99.90;;;;;;5053228;28;20095;-68
2022/02/21 00:14:19;;;;;;;0.00;0.00;;;10.40;99.90;;;;;;5054935;28;20029;-69
2022/02/21 00:16:45;;;;;;;0.30;0.30;;;10.40;99.90;;;;;;5069696;28;20037;-69
2022/02/21 00:19:11;;;;;;;0.00;0.00;;;10.40;99.90;;;;;;5054476;28;20040;-69
2022/02/21 00:21:37;;;;;;;0.00;0.00;;;10.40;99.90;;;;;;5053261;28;20170;-69
2022/02/21 00:24:03;;;;;;;0.00;0.00;;;10.40;99.90;;;;;;5053047;28;20508;-69
2022/02/21 00:26:29;;;;;;;0.00;0.00;;;10.40;99.90;;;;;;5054499;28;20114;-70
2022/02/21 00:28:56;;;;;;;0.63;0.63;;;10.40;99.90;;;;;;5053174;28;20442;-69
2022/02/21 00:31:22;;;;;;;0.00;0.00;;;10.40;99.90;;;;;;5053505;28;20037;-69
2022/02/21 00:33:48;;;;;;;0.00;0.00;;;10.40;99.90;;;;;;5054139;28;20025;-69
2022/02/21 00:36:14;;;;;;;9.43;0.68;;;10.30;99.90;;;;;;5052800;28;20507;-70
2022/02/21 00:38:40;;;;;;;0.00;0.00;;;10.30;99.90;;;;;;5054174;28;20478;-69
2022/02/21 00:41:06;;;;;;;0.00;0.00;;;10.30;99.90;;;;;;5053150;28;20029;-69
2022/02/21 00:43:32;;;;;;;0.43;0.43;;;10.30;99.90;;;;;;5053012;28;20385;-70
2022/02/21 00:45:57;;;;;;;0.00;0.00;;;10.30;99.90;;;;;;5054109;28;20037;-70
2022/02/21 00:48:23;;;;;;;0.00;0.00;;;10.20;99.90;;;;;;5053809;28;20098;-70
2022/02/21 00:50:49;;;;;;;0.10;0.10;;;10.20;99.90;;;;;;5053961;28;20123;-70
2022/02/21 00:53:15;;;;;;;3.47;0.75;;;10.10;99.90;;;;;;5053762;28;20025;-70
2022/02/21 00:55:41;;;;;;;0.00;0.00;;;10.20;99.90;;;;;;5053640;28;20392;-71
2022/02/21 00:58:07;;;;;;;0.00;0.00;;;10.20;99.90;;;;;;5053942;28;20037;-70
2022/02/21 01:00:34;;;;;;;0.10;0.10;;;10.30;99.90;;;;;;5053529;28;20025;-71
2022/02/21 01:03:01;;;;;;;0.00;0.00;;;10.30;99.90;;;;;;5053682;28;20025;-69
2022/02/21 01:05:27;;;;;;;0.00;0.00;;;10.20;99.90;;;;;;5053973;28;20111;-69
2022/02/21 01:07:53;;;;;;;0.00;0.00;;;10.30;99.90;;;;;;5052343;28;20025;-69
2022/02/21 01:10:19;;;;;;;0.00;0.00;;;10.20;99.90;;;;;;5053435;28;20037;-69
2022/02/21 01:12:45;;;;;;;0.00;0.00;;;10.30;99.90;;;;;;5053406;28;20513;-70
2022/02/21 01:15:13;;;;;;;0.10;0.10;;;10.30;99.90;;;;;;5053583;28;20040;-70
2022/02/21 01:17:43;;;;;;;0.00;0.00;;;10.40;99.90;;;;;;5053318;28;20044;-70
2022/02/21 01:20:11;;;;;;;0.00;0.00;;;10.40;99.90;;;;;;5052033;28;20338;-70
2022/02/21 01:22:38;;;;;;;0.00;0.00;;;10.30;99.90;;;;;;5051472;28;20493;-70
2022/02/21 01:25:06;;;;;;;0.08;0.08;;;10.30;99.90;;;;;;5053403;28;20072;-70
2022/02/21 01:27:33;;;;;;;0.00;0.00;;;10.30;99.90;;;;;;5053156;28;20036;-70
2022/02/21 01:29:59;;;;;;;0.00;0.00;;;10.40;99.90;;;;;;5053161;28;20032;-71
2022/02/21 01:32:25;;;;;;;0.00;0.00;;;10.40;99.90;;;;;;5053491;28;20508;-70
2022/02/21 01:34:50;;;;;;;0.00;0.00;;;10.40;99.90;;;;;;5053015;28;20575;-71
2022/02/21 01:37:16;;;;;;;0.00;0.00;;;10.40;99.90;;;;;;5051509;28;20060;-70
2022/02/21 01:39:42;;;;;;;0.88;0.88;;;10.40;99.90;;;;;;5051538;28;20119;-71
2022/02/21 01:42:08;;;;;;;0.00;0.00;;;10.40;99.90;;;;;;5053206;28;20112;-70
2022/02/21 01:44:36;;;;;;;0.00;0.00;;;10.40;99.90;;;;;;5052739;28;20036;-71
2022/02/21 01:47:07;;;;;;;0.00;0.00;;;10.40;99.90;;;;;;5052853;28;20099;-70
2022/02/21 01:49:34;;;;;;;6.93;0.80;;;10.40;99.90;;;;;;5052516;28;20723;-71
2022/02/21 01:52:01;;;;;;;0.00;0.00;;;10.50;99.90;;;;;;5053002;28;20068;-71
2022/02/21 01:54:27;;;;;;;0.00;0.00;;;10.60;99.90;;;;;;5052709;28;20029;-70
2022/02/21 01:56:53;;;;;;;0.00;0.00;;;10.50;99.90;;;;;;5052531;28;20037;-70
2022/02/21 01:59:20;;;;;;;0.00;0.00;;;10.50;99.90;;;;;;5052691;28;20506;-70
2022/02/21 02:01:48;;;;;;;0.20;0.20;;;10.50;99.90;;;;;;5051195;28;20048;-70
2022/02/21 02:04:13;;;;;;;0.00;0.00;;;10.50;99.90;;;;;;5052560;28;20033;-70
2022/02/21 02:06:39;;;;;;;0.00;0.00;;;10.40;99.90;;;;;;5051355;28;20025;-70
2022/02/21 02:09:07;;;;;;;0.00;0.00;;;10.30;99.90;;;;;;5052442;28;20025;-70
2022/02/21 02:11:34;;;;;;;0.00;0.00;;;10.30;99.90;;;;;;5051153;28;20112;-71
2022/02/21 02:14:00;;;;;;;0.00;0.00;;;10.30;99.90;;;;;;5051192;28;20025;-70
2022/02/21 02:16:25;;;;;;;0.00;0.00;;;10.20;99.90;;;;;;5050955;28;20409;-71
2022/02/21 02:18:51;;;;;;;0.00;0.00;;;10.10;99.90;;;;;;5052307;28;20029;-70
2022/02/21 02:21:27;;;;;;;0.10;0.10;;;10.00;99.90;;;;;;5051117;28;20132;-70
2022/02/21 02:23:55;;;;;;;0.00;0.00;;;9.90;99.90;;;;;;5052297;28;20041;-70
2022/02/21 02:26:23;;;;;;;0.00;0.00;;;9.90;99.90;;;;;;5050784;28;20445;-70
2022/02/21 02:28:53;;;;;;;6.55;1.85;;;9.80;99.90;;;;;;5050363;28;20093;-72
2022/02/21 02:31:20;;;;;;;0.60;0.60;;;9.70;99.90;;;;;;5051253;28;20029;-70
2022/02/21 02:33:46;;;;;;;0.00;0.00;;;8.60;99.90;;;;;;5050902;28;20033;-71
2022/02/21 02:36:11;;;;;;;0.00;0.00;;;7.90;99.90;;;;;;5051784;28;20059;-69
2022/02/21 02:38:41;;;;;;;0.08;0.08;;;7.30;99.90;;;;;;5050285;28;20025;-68
2022/02/21 02:41:10;;;;;;;0.08;0.08;;;7.00;99.90;;;;;;5052123;28;20040;-68
2022/02/21 02:43:38;;;;;;;1.52;1.45;;;6.70;99.90;;;;;;5051794;28;20025;-68
2022/02/21 02:46:04;;;;;;;0.00;0.00;;;6.60;99.90;;;;;;5051816;28;20033;-67
2022/02/21 02:48:29;;;;;;;0.00;0.00;;;6.90;99.90;;;;;;5050315;28;20128;-67
2022/02/21 02:50:56;;;;;;;0.00;0.00;;;6.80;99.90;;;;;;5051796;28;20498;-67
2022/02/21 02:53:21;;;;;;;0.10;0.10;;;7.20;99.90;;;;;;5051669;28;20036;-67
2022/02/21 02:55:47;;;;;;;0.10;0.10;;;7.30;99.90;;;;;;5051448;28;20037;-67
2022/02/21 02:58:13;;;;;;;0.00;0.00;;;7.40;99.90;;;;;;5051852;28;20159;-67
2022/02/21 03:00:38;;;;;;;1.02;0.68;;;7.70;99.90;;;;;;5051373;28;20028;-67
2022/02/21 03:03:04;;;;;;;0.00;0.00;;;7.70;99.90;;;;;;5050327;28;20033;-67
2022/02/21 03:05:31;;;;;;;0.00;0.00;;;7.80;99.90;;;;;;5050700;28;20055;-68
2022/02/21 03:07:57;;;;;;;0.00;0.00;;;8.00;99.90;;;;;;5050313;28;20068;-68
2022/02/21 03:10:23;;;;;;;0.00;0.00;;;7.90;99.90;;;;;;5051749;28;20106;-68
2022/02/21 03:12:48;;;;;;;0.00;0.00;;;7.80;99.90;;;;;;5051428;28;20087;-68
2022/02/21 03:15:14;;;;;;;0.63;0.63;;;7.90;99.90;;;;;;5051642;28;20045;-69
2022/02/21 03:17:40;;;;;;;0.20;0.20;;;7.90;99.90;;;;;;5050011;28;20124;-68
2022/02/21 03:20:06;;;;;;;0.00;0.00;;;7.90;99.90;;;;;;5050156;28;20028;-68
2022/02/21 03:22:32;;;;;;;0.00;0.00;;;7.90;99.90;;;;;;5050077;28;20041;-68
2022/02/21 03:24:58;;;;;;;0.00;0.00;;;7.80;99.90;;;;;;5051543;28;20087;-68
2022/02/21 03:27:24;;;;;;;0.00;0.00;;;7.80;99.90;;;;;;5051192;28;20674;-68
2022/02/21 03:29:50;;;;;;;0.38;0.38;;;7.90;99.90;;;;;;5050966;28;20044;-68
2022/02/21 03:32:16;;;;;;;0.10;0.10;;;8.10;99.90;;;;;;5051364;28;20391;-67
2022/02/21 03:34:42;;;;;;;0.00;0.00;;;8.00;99.90;;;;;;5051312;28;20033;-67
2022/02/21 03:37:08;;;;;;;0.00;0.00;;;8.00;99.90;;;;;;5049903;28;20103;-67
2022/02/21 03:39:34;;;;;;;0.00;0.00;;;8.00;99.90;;;;;;5049847;28;20116;-67
2022/02/21 03:41:59;;;;;;;0.00;0.00;;;8.20;99.90;;;;;;5051109;28;20029;-68
2022/02/21 03:44:25;;;;;;;0.00;0.00;;;8.10;99.90;;;;;;5051397;28;20043;-67
2022/02/21 03:46:51;;;;;;;0.30;0.30;;;8.10;99.90;;;;;;5053094;28;20045;-68
2022/02/21 03:49:17;;;;;;;0.00;0.00;;;8.00;99.90;;;;;;5054141;28;20033;-67
2022/02/21 03:51:42;;;;;;;0.00;0.00;;;8.10;99.90;;;;;;5053715;28;20103;-67
2022/02/21 03:54:09;;;;;;;0.10;0.10;;;8.00;99.90;;;;;;5055307;28;20098;-67
2022/02/21 03:56:36;;;;;;;0.00;0.00;;;8.10;99.90;;;;;;5054817;28;20034;-68
2022/02/21 03:59:02;;;;;;;0.00;0.00;;;8.00;99.90;;;;;;5054715;28;20367;-67
2022/02/21 04:01:28;;;;;;;0.00;0.00;;;8.00;99.90;;;;;;5055267;28;20076;-67
2022/02/21 04:03:54;;;;;;;6.38;2.80;;;8.10;99.90;;;;;;5055002;28;20864;-67
2022/02/21 04:06:20;;;;;;;0.00;0.00;;;8.20;99.90;;;;;;5054894;28;20037;-67
2022/02/21 04:08:45;;;;;;;1.15;1.15;;;8.10;99.90;;;;;;5054538;28;20023;-68
2022/02/21 04:11:11;;;;;;;2.50;2.25;;;8.20;99.90;;;;;;5054601;28;20048;-68
2022/02/21 04:13:37;;;;;;;0.00;0.00;;;8.10;99.90;;;;;;5054832;28;20029;-67
2022/02/21 04:16:03;;;;;;;0.00;0.00;;;8.00;99.90;;;;;;5054611;28;20044;-67
2022/02/21 04:18:29;;;;;;;0.00;0.00;;;8.00;99.90;;;;;;5053309;28;20033;-67
2022/02/21 04:20:54;;;;;;;0.00;0.00;;;8.00;99.90;;;;;;5054483;28;20036;-67
2022/02/21 04:23:20;;;;;;;0.00;0.00;;;8.00;99.90;;;;;;5054741;28;20071;-67
2022/02/21 04:25:46;;;;;;;1.52;1.23;;;8.00;99.90;;;;;;5054286;28;20037;-68
2022/02/21 04:28:15;;;;;;;0.00;0.00;;;8.00;99.90;;;;;;5053017;28;20060;-68
2022/02/21 04:30:41;;;;;;;0.00;0.00;;;8.00;99.90;;;;;;5054288;28;20477;-68
2022/02/21 04:33:07;;;;;;;0.00;0.00;;;8.00;99.90;;;;;;5054728;28;20040;-67
2022/02/21 04:35:32;;;;;;;0.10;0.10;;;7.90;99.90;;;;;;5054182;28;20041;-67
2022/02/21 04:37:58;;;;;;;1.67;1.58;;;7.70;99.90;;;;;;5054281;28;20040;-67
2022/02/21 04:40:29;;;;;;;0.08;0.08;;;7.70;99.90;;;;;;5054017;28;20045;-67
2022/02/21 04:42:56;;;;;;;0.00;0.00;;;7.60;99.90;;;;;;5054286;28;20048;-69
2022/02/21 04:45:23;;;;;;;0.00;0.00;;;7.70;99.90;;;;;;5053895;28;20116;-68
2022/02/21 04:47:50;;;;;;;0.00;0.00;;;7.70;99.90;;;;;;5052488;28;20072;-67
2022/02/21 04:50:16;;;;;;;0.00;0.00;;;7.80;99.90;;;;;;5052898;28;20108;-67
2022/02/21 04:52:43;;;;;;;0.00;0.00;;;7.80;99.90;;;;;;5052767;28;20078;-67
2022/02/21 04:55:12;;;;;;;0.00;0.00;;;7.70;99.90;;;;;;5053924;28;20043;-67
2022/02/21 04:57:39;;;;;;;0.00;0.00;;;7.70;99.90;;;;;;5052890;28;20064;-67
2022/02/21 05:00:08;;;;;;;0.00;0.00;;;7.60;99.90;;;;;;5056030;28;20632;-67
2022/02/21 05:02:34;;;;;;;0.00;0.00;;;7.60;99.90;;;;;;5070483;28;20474;-67
2022/02/21 05:05:00;;;;;;;1.02;0.80;;;7.50;99.90;;;;;;5073778;28;20064;-67
2022/02/21 05:07:26;;;;;;;0.00;0.00;;;7.40;99.90;;;;;;5073358;28;20111;-67
2022/02/21 05:09:51;;;;;;;0.00;0.00;;;7.30;99.90;;;;;;5073243;28;20044;-68
2022/02/21 05:12:20;;;;;;;0.00;0.00;;;7.30;99.90;;;;;;5069406;28;20096;-67
2022/02/21 05:14:45;;;;;;;0.00;0.00;;;7.30;99.90;;;;;;5072055;28;20123;-66
2022/02/21 05:17:11;;;;;;;0.00;0.00;;;7.30;99.90;;;;;;5070098;28;20162;-66
2022/02/21 05:19:37;;;;;;;0.40;0.38;;;7.20;99.90;;;;;;5072825;28;20028;-66
2022/02/21 05:22:03;;;;;;;0.00;0.00;;;7.10;99.90;;;;;;5073138;28;20059;-65
2022/02/21 05:24:29;;;;;;;0.00;0.00;;;7.10;99.90;;;;;;5073311;28;20067;-65
2022/02/21 05:26:54;;;;;;;5.40;1.95;;;7.10;99.90;;;;;;5073295;28;20075;-65
2022/02/21 05:29:21;;;;;;;0.10;0.10;;;7.00;99.90;;;;;;5073372;28;20116;-66
2022/02/21 05:31:46;;;;;;;0.00;0.00;;;7.00;99.90;;;;;;5072943;28;20029;-67
2022/02/21 05:34:13;;;;;;;0.90;0.90;;;6.90;99.90;;;;;;5073238;28;20032;-66
2022/02/21 05:36:40;;;;;;;0.05;0.05;;;6.90;99.90;;;;;;5072820;28;20119;-68
2022/02/21 05:39:08;;;;;;;0.00;0.00;;;6.90;99.90;;;;;;5071925;28;20028;-69
2022/02/21 05:41:34;;;;;;;55.75;1.48;;;6.80;99.90;;;;;;5073118;28;20086;-68
2022/02/21 05:44:00;;;;;;;0.00;0.00;;;6.70;99.90;;;;;;5071635;28;20032;-67
2022/02/21 05:46:26;;;;;;;0.10;0.10;;;6.70;99.90;;;;;;5072847;28;20526;-61
2022/02/21 05:48:52;;;;;;;0.08;0.08;;;6.60;99.90;;;;;;5072048;28;20045;-62
2022/02/21 05:51:18;;;;;;;1.13;0.80;;;6.50;99.90;;;;;;5072375;28;20051;-62
2022/02/21 05:53:46;;;;;;;0.03;0.03;;;6.60;99.90;;;;;;5070347;28;20045;-61
2022/02/21 05:56:13;;;;;;;0.00;0.00;;;6.60;99.90;;;;;;5072843;28;20036;-62
2022/02/21 05:58:41;;;;;;;0.13;0.13;;;6.60;99.90;;;;;;5072539;28;20095;-61
2022/02/21 06:01:07;;;;;;;0.00;0.00;;;6.60;99.90;;;;;;5072711;28;20032;-62
2022/02/21 06:03:33;;;;;;;0.00;0.00;;;6.60;99.90;;;;;;5072378;28;20116;-61
2022/02/21 06:05:59;;;;;;;0.00;0.00;;;6.50;99.90;;;;;;5072301;28;20522;-62
2022/02/21 06:08:24;;;;;;;0.00;0.00;;;6.50;99.90;;;;;;5072249;28;20032;-62
2022/02/21 06:10:50;;;;;;;0.00;0.00;;;6.30;99.90;;;;;;5072230;28;20028;-63
2022/02/21 06:13:16;;;;;;;0.00;0.00;;;6.40;99.90;;;;;;5072107;28;20116;-63
2022/02/21 06:15:42;;;;;;;0.00;0.00;;;6.40;99.90;;;;;;5071917;28;20041;-63
2022/02/21 06:18:08;;;;;;;0.00;0.00;;;6.30;99.90;;;;;;5071191;28;20431;-63
2022/02/21 06:20:33;;;;;;;1.27;1.17;;;6.30;99.90;;;;;;5070610;28;20560;-62
2022/02/21 06:22:59;;;;;;;1.40;1.30;;;6.30;99.90;;;;;;5072208;28;20115;-63
2022/02/21 06:25:25;;;;;;;12.40;2.35;;;6.30;99.90;;;;;;5072101;28;20062;-62
2022/02/21 06:27:53;;;;;;;0.00;0.00;;;6.20;99.90;;;;;;5072005;28;20033;-63
2022/02/21 06:30:19;;;;;;;0.00;0.00;;;6.20;99.90;;;;;;5070402;28;20033;-62
2022/02/21 06:32:45;;;;;;;0.10;0.10;;;6.30;99.90;;;;;;5072092;28;20036;-62
2022/02/21 06:35:11;;;;;;;0.10;0.10;;;6.30;99.90;;;;;;5071975;28;20040;-62
2022/02/21 06:37:42;;;;;;;0.00;0.00;;;6.20;99.90;;;;;;5071795;28;20039;-67
2022/02/21 06:40:08;;;;;;;0.05;0.05;;;6.30;99.90;;;;;;5070588;28;20031;-62
2022/02/21 06:42:34;;;;;;;0.00;0.00;;;6.30;99.90;;;;;;5071834;28;20032;-62
2022/02/21 06:44:59;;;;;;;0.10;0.10;;;6.30;99.90;;;;;;5071363;28;20039;-62
2022/02/21 06:47:25;;;;;;;0.00;0.00;;;6.30;99.90;;;;;;5071109;28;20087;-61
2022/02/21 06:49:51;;;;;;;0.45;0.45;;;6.20;99.90;;;;;;5071414;28;20032;-61
2022/02/21 06:52:17;;;;;;;0.15;0.15;;;6.20;99.90;;;;;;5071483;28;20036;-61
2022/02/21 06:54:42;;;;;;;0.00;0.00;;;6.20;99.90;;;;;;5071528;28;20033;-62
2022/02/21 06:57:08;;;;;;;0.00;0.00;;;6.20;99.90;;;;;;5071533;28;20055;-62
2022/02/21 06:59:34;;;;;;;1.08;0.98;;;6.20;99.90;;;;;;5071771;28;20032;-62
2022/02/21 07:02:08;;;;;;;0.10;0.10;;;6.20;99.90;;;;;;5070382;28;20041;-62
2022/02/21 07:04:36;;;;;;;3.92;1.75;;;6.30;99.90;;;;;;5070666;28;20066;-65
2022/02/21 07:07:03;;;;;;;1.77;1.65;;;6.30;99.90;;;;;;5067054;28;20028;-63
2022/02/21 07:09:29;;;;;;;11.60;3.67;;;6.30;99.90;;;;;;5071851;28;20211;-62
2022/02/21 07:11:54;;;;;;;0.00;0.00;;;6.30;99.90;;;;;;5053422;28;20652;-62
2022/02/21 07:14:22;;;;;;;0.20;0.20;;;6.30;99.90;;;;;;5071702;28;20040;-63
2022/02/21 07:16:49;;;;;;;0.05;0.05;;;6.40;99.90;;;;;;5071354;28;20419;-63
2022/02/21 07:19:15;;;;;;;0.20;0.20;;;6.40;99.90;;;;;;5069719;28;20082;-77
2022/02/21 07:21:42;;;;;;;0.10;0.10;;;6.40;99.90;;;;;;5070514;28;20036;-74
2022/02/21 07:24:09;;;;;;;0.00;0.00;;;6.50;99.90;;;;;;5071521;28;20035;-73
2022/02/21 07:26:35;;;;;;;0.10;0.10;;;6.50;99.90;;;;;;5070349;28;20075;-74
2022/02/21 07:29:00;;;;;;;4.13;1.40;;;6.40;99.90;;;;;;5069865;28;20532;-75
2022/02/21 07:31:26;;;;;;;0.00;0.00;;;6.30;99.90;;;;;;5069853;28;20103;-74
2022/02/21 07:33:52;;;;;;;0.00;0.00;;;6.30;99.90;;;;;;5070033;28;20054;-74
2022/02/21 07:36:18;;;;;;;0.10;0.10;;;6.30;99.90;;;;;;5071356;28;20039;-73
2022/02/21 07:38:44;;;;;;;0.00;0.00;;;6.30;99.90;;;;;;5070996;28;20142;-69
2022/02/21 07:41:09;;;;;;;0.10;0.10;;;6.20;99.90;;;;;;5070837;28;20072;-69
2022/02/21 07:43:35;;;;;;;0.00;0.00;;;6.30;99.90;;;;;;5069895;28;20056;-72
2022/02/21 07:46:01;;;;;;;0.20;0.20;;;6.20;99.90;;;;;;5070181;28;20478;-70
2022/02/21 07:48:27;;;;;;;0.98;0.98;;;6.20;99.90;;;;;;5070808;28;20044;-71
2022/02/21 07:50:54;;;;;;;0.00;0.00;;;6.10;99.90;;;;;;5069683;28;20029;-70
2022/02/21 07:53:21;;;;;;;0.00;0.00;;;6.20;99.90;;;;;;5069744;28;20043;-69
2022/02/21 07:55:47;;;;;;;0.00;0.00;;;6.20;99.90;;;;;;5070883;28;20033;-71
2022/02/21 07:58:13;;;;;;;0.00;0.00;;;6.20;99.90;;;;;;5071270;28;20384;-71
2022/02/21 08:00:39;;;;;;;0.10;0.10;;;6.20;99.90;;;;;;5071304;28;20382;-71
2022/02/21 08:03:05;;;;;;;0.85;0.85;;;6.10;99.90;;;;;;5070929;28;20027;-71
2022/02/21 08:05:31;;;;;;;1.17;1.08;;;6.10;99.90;;;;;;5071090;28;20032;-70
2022/02/21 08:07:57;;;;;;;0.08;0.08;;;6.00;99.90;;;;;;5052453;28;20051;-70
2022/02/21 08:10:22;;;;;;;0.00;0.00;;;5.90;99.90;;;;;;5069819;28;20028;-71
2022/02/21 08:12:48;;;;;;;0.00;0.00;;;5.60;99.90;;;;;;5070633;28;20029;-70
2022/02/21 08:15:14;;;;;;;0.00;0.00;;;5.60;99.90;;;;;;5070891;28;20056;-70
2022/02/21 08:17:46;;;;;;;0.00;0.00;;;5.50;99.90;;;;;;5070078;28;20041;-80
2022/02/21 08:20:24;;;;;;;0.20;0.20;;;5.60;99.90;;;;;;5071430;28;20028;-81
2022/02/21 08:22:52;;;;;;;0.00;0.00;;;5.70;99.90;;;;;;5069858;28;20077;-82
2022/02/21 08:25:18;;;;;;;0.00;0.00;;;5.80;99.90;;;;;;5070417;28;20028;-81
2022/02/21 08:27:45;;;;;;;0.00;0.00;;;5.80;99.90;;;;;;5071344;28;20036;-81
2022/02/21 08:30:23;;;;;;;0.08;0.08;;;5.90;99.90;;;;;;5071215;28;20039;-83
2022/02/21 08:32:49;;;;;;;0.00;0.00;;;6.00;99.90;;;;;;5072784;28;20580;-81
2022/02/21 08:35:16;;;;;;;1.05;0.95;;;6.10;99.90;;;;;;5074168;28;20062;-81
2022/02/21 08:37:43;;;;;;;0.00;0.00;;;6.20;99.90;;;;;;5077000;28;20086;-80
2022/02/21 08:40:16;;;;;;;0.00;0.00;;;6.30;99.90;;;;;;5076799;28;20401;-80
2022/02/21 08:42:43;;;;;;;0.00;0.00;;;6.40;99.90;;;;;;5058450;28;20555;-82
2022/02/21 08:45:10;;;;;;;0.30;0.30;;;6.50;99.90;;;;;;5074711;28;20123;-80
2022/02/21 08:47:37;;;;;;;0.20;0.20;;;6.60;99.90;;;;;;5072989;28;20050;-79
2022/02/21 08:50:05;;;;;;;0.00;0.00;;;6.70;99.90;;;;;;5074111;28;20525;-81
2022/02/21 08:52:32;;;;;;;2.35;2.15;;;6.80;99.90;;;;;;5074245;28;20120;-81
2022/02/21 08:54:58;;;;;;;0.00;0.00;;;6.70;99.90;;;;;;5079211;28;20039;-80
2022/02/21 08:57:24;;;;;;;0.00;0.00;;;6.60;99.90;;;;;;5074943;28;20397;-81
2022/02/21 08:59:49;;;;;;;0.00;0.00;;;6.50;99.90;;;;;;5074120;28;20033;-81
2022/02/21 09:02:19;;;;;;;0.45;0.45;;;6.40;99.90;;;;;;5074437;28;20066;-82
2022/02/21 09:04:44;;;;;;;0.15;0.15;;;6.50;99.90;;;;;;5074055;28;20032;-82
2022/02/21 09:07:10;;;;;;;0.00;0.00;;;6.50;99.90;;;;;;5055822;28;20043;-83
2022/02/21 09:09:36;;;;;;;0.00;0.00;;;6.50;99.90;;;;;;5072440;28;20061;-81
2022/02/21 09:12:03;;;;;;;0.00;0.00;;;6.40;99.90;;;;;;5072639;28;20063;-81
2022/02/21 09:14:29;;;;;;;0.30;0.30;;;6.30;99.90;;;;;;5073954;28;20436;-82
2022/02/21 09:16:55;;;;;;;0.13;0.13;;;6.40;99.90;;;;;;5070284;28;20029;-82
2022/02/21 09:19:21;;;;;;;0.10;0.10;;;6.50;99.90;;;;;;5074163;28;20033;-84
2022/02/21 09:21:47;;;;;;;0.00;0.00;;;6.70;99.90;;;;;;5072909;28;20077;-84
2022/02/21 09:24:13;;;;;;;0.00;0.00;;;6.60;99.90;;;;;;5072263;28;20033;-82
2022/02/21 09:26:39;;;;;;;0.00;0.00;;;6.50;99.90;;;;;;5073753;28;20039;-81
2022/02/21 09:29:04;;;;;;;0.00;0.00;;;6.30;99.90;;;;;;5073598;28;20020;-81
2022/02/21 09:31:30;;;;;;;0.00;0.00;;;6.20;99.90;;;;;;5074128;28;20033;-81
2022/02/21 09:33:56;;;;;;;0.10;0.10;;;6.30;99.90;;;;;;5072247;28;20044;-81
2022/02/21 09:36:22;;;;;;;0.00;0.00;;;6.40;99.90;;;;;;5074036;28;20455;-82
2022/02/21 09:38:47;;;;;;;0.00;0.00;;;6.50;99.90;;;;;;5074010;28;20104;-84
2022/02/21 09:41:13;;;;;;;0.00;0.00;;;6.40;99.90;;;;;;5072629;28;20029;-83
2022/02/21 09:43:39;;;;;;;0.00;0.00;;;6.60;99.90;;;;;;5072301;28;20029;-82
2022/02/21 09:46:10;;;;;;;0.00;0.00;;;6.60;99.90;;;;;;5073308;28;20040;-83
2022/02/21 09:48:37;;;;;;;0.00;0.00;;;6.60;99.90;;;;;;5073234;28;20044;-82
2022/02/21 09:51:04;;;;;;;0.00;0.00;;;6.60;99.90;;;;;;5072955;28;20044;-83
2022/02/21 09:53:36;;;;;;;0.00;0.00;;;6.60;99.90;;;;;;5071807;28;20024;-84
2022/02/21 09:56:05;;;;;;;0.95;0.80;;;6.60;99.90;;;;;;5072680;28;20032;-82
2022/02/21 09:58:33;;;;;;;0.03;0.03;;;6.60;99.90;;;;;;5072961;28;20041;-83
2022/02/21 10:00:59;;;;;;;2.13;1.75;;;6.50;99.90;;;;;;5072949;28;20047;-82
2022/02/21 10:03:37;;;;;;;0.00;0.00;;;6.50;99.90;;;;;;5072652;28;20116;-81
2022/02/21 10:06:24;;;;;;;0.00;0.00;;;6.50;99.90;;;;;;5072951;28;20028;-81
2022/02/21 10:09:12;;;;;;;0.00;0.00;;;6.60;99.90;;;;;;5072815;28;20033;-81
2022/02/21 10:11:40;;;;;;;0.00;0.00;;;6.70;99.90;;;;;;5071852;28;20074;-81
2022/02/21 10:14:24;;;;;;;0.00;0.00;;;6.70;99.90;;;;;;5071736;28;20052;-81
2022/02/21 10:16:56;;;;;;;0.00;0.00;;;6.70;99.90;;;;;;5070886;28;20094;-81
2022/02/21 10:19:25;;;;;;;0.00;0.00;;;6.70;99.90;;;;;;5072822;28;20157;-81
2022/02/21 10:22:07;;;;;;;0.00;0.00;;;6.80;99.90;;;;;;5071619;28;20394;-80
2022/02/21 10:24:41;;;;;;;;;;;6.90;99.90;;;;;;5072953;28;20062;-79
2022/02/21 10:27:19;;;;;;;0.00;0.00;;;6.90;99.90;;;;;;5072537;28;19991;-81
2022/02/21 10:29:55;;;;;;;0.25;0.25;;;6.90;99.90;;;;;;5072677;28;20397;-81
2022/02/21 10:32:27;;;;;;;3.10;1.65;;;7.00;99.90;;;;;;5072365;28;20033;-79
2022/02/21 10:34:53;;;;;;;;;;;6.90;99.90;;;;;;5071458;28;20089;-82
2022/02/21 10:37:25;;;;;;;0.00;0.00;;;7.00;99.90;;;;;;5070269;28;20003;-81
2022/02/21 10:40:15;;;;;;;0.00;0.00;;;7.10;99.90;;;;;;5072748;28;20028;-82
2022/02/21 10:42:44;;;;;;;8.18;2.35;;;7.00;99.90;;;;;;5071046;28;20512;-84
2022/02/21 10:45:17;;;;;;;0.55;0.55;;;7.00;99.90;;;;;;5069907;28;20131;-84
2022/02/21 10:48:20;;;;;;;0.00;0.00;;;7.10;99.90;;;;;;5070941;28;20036;-82
2022/02/21 10:50:58;;;;;;;0.10;0.10;;;7.20;99.90;;;;;;5071968;28;20039;-76
2022/02/21 10:53:34;;;;;;;0.63;0.63;;;7.20;99.90;;;;;;5071469;28;20051;-73
2022/02/21 10:56:00;;;;;;;0.00;0.00;;;7.10;99.90;;;;;;5069254;28;20101;-72
2022/02/21 10:58:27;;;;;;;0.00;0.00;;;7.10;99.90;;;;;;5071639;28;20029;-68
2022/02/21 11:00:55;;;;;;;0.40;0.40;;;7.00;99.90;;;;;;5071159;28;20067;-66
2022/02/21 11:03:26;;;;;;;0.25;0.25;;;7.00;99.90;;;;;;5071220;28;20528;-65
2022/02/21 11:05:55;;;;;;;0.73;0.73;;;7.10;99.90;;;;;;5071237;28;20119;-69
2022/02/21 11:08:22;;;;;;;0.00;0.00;;;7.10;99.90;;;;;;5071161;28;20181;-69
2022/02/21 11:11:00;;;;;;;0.10;0.10;;;7.20;99.90;;;;;;5071295;28;20052;-72
2022/02/21 11:13:28;;;;;;;0.17;0.17;;;7.20;99.90;;;;;;5070107;28;20405;-67
2022/02/21 11:15:54;;;;;;;0.00;0.00;;;7.20;99.90;;;;;;5069898;28;20085;-67
2022/02/21 11:18:21;;;;;;;0.10;0.10;;;7.20;99.90;;;;;;5070075;28;20115;-79
2022/02/21 11:20:47;;;;;;;0.00;0.00;;;7.20;99.90;;;;;;5070439;28;20513;-74
2022/02/21 11:23:13;;;;;;;0.00;0.00;;;7.30;99.90;;;;;;5071469;28;20404;-72
2022/02/21 11:25:59;;;;;;;0.10;0.10;;;7.20;99.90;;;;;;5070278;28;20060;-75
2022/02/21 11:28:34;;;;;;;0.00;0.00;;;7.30;99.90;;;;;;5070116;28;20049;-73
2022/02/21 11:31:04;;;;;;;0.00;0.00;;;7.30;99.90;;;;;;5070048;28;20033;-73
2022/02/21 11:33:31;;;;;;;0.00;0.00;;;7.30;99.90;;;;;;5071206;28;20036;-73
2022/02/21 11:36:14;;;;;;;0.10;0.10;;;7.40;99.90;;;;;;5071359;28;20108;-73
2022/02/21 11:38:42;;;;;;;0.28;0.28;;;7.40;99.90;;;;;;5071261;28;20032;-74
2022/02/21 11:41:13;;;;;;;0.20;0.20;;;7.40;99.90;;;;;;5070960;28;20032;-73
2022/02/21 11:43:51;;;;;;;0.00;0.00;;;7.40;99.90;;;;;;5071384;28;20032;-73
2022/02/21 11:46:31;;;;;;;0.00;0.00;;;7.50;99.90;;;;;;5071101;28;20033;-73
2022/02/21 11:49:06;;;;;;;0.00;0.00;;;7.60;99.90;;;;;;5069956;28;20447;-73
2022/02/21 11:51:41;;;;;;;0.10;0.10;;;7.70;99.90;;;;;;5070771;28;20078;-75
2022/02/21 11:54:13;;;;;;;0.00;0.00;;;7.60;99.90;;;;;;5071029;28;20033;-74
2022/02/21 11:56:48;;;;;;;0.00;0.00;;;7.70;99.90;;;;;;5070955;28;20393;-73
2022/02/21 11:59:35;;;;;;;0.00;0.00;;;7.60;99.90;;;;;;5070723;28;20545;-73
2022/02/21 12:02:15;;;;;;;0.00;0.00;;;7.60;99.90;;;;;;5070652;28;20028;-73
2022/02/21 12:04:52;;;;;;;0.00;0.00;;;7.60;99.90;;;;;;5071043;28;20032;-73
2022/02/21 12:07:36;;;;;;;0.00;0.00;;;7.60;99.90;;;;;;5071819;28;20108;-72
2022/02/21 12:10:22;;;;;;;0.00;0.00;;;7.60;99.90;;;;;;5073701;28;20044;-73
2022/02/21 12:12:59;;;;;;;0.00;0.00;;;7.50;99.90;;;;;;5073720;28;20124;-73
2022/02/21 12:15:35;;;;;;;0.00;0.00;;;7.50;99.90;;;;;;5074260;28;20074;-73
2022/02/21 12:18:09;;;;;;;0.20;0.20;;;7.50;99.90;;;;;;5073392;28;20439;-74
2022/02/21 12:20:41;;;;;;;0.00;0.00;;;7.50;99.90;;;;;;5074893;28;20068;-74
2022/02/21 12:23:13;;;;;;;;;;;7.60;99.90;;;;;;5074788;28;20079;-72
2022/02/21 12:25:41;;;;;;;5.40;2.25;;;7.50;99.90;;;;;;5074357;28;20019;-73
2022/02/21 12:28:21;;;;;;;0.10;0.10;;;7.50;99.90;;;;;;5072788;28;20032;-73
2022/02/21 12:30:57;;;;;;;7.88;1.15;;;7.40;99.90;;;;;;5074177;28;20082;-74
2022/02/21 12:33:32;;;;;;;0.10;0.10;;;7.30;99.90;;;;;;5072962;28;20029;-74
2022/02/21 12:36:05;;;;;;;0.00;0.00;;;7.30;99.90;;;;;;5074109;28;20032;-74
2022/02/21 12:38:38;;;;;;;0.00;0.00;;;7.20;99.90;;;;;;5073149;28;20025;-74
2022/02/21 12:41:10;;;;;;;0.00;0.00;;;7.10;99.90;;;;;;5072786;28;20032;-73
2022/02/21 12:43:53;;;;;;;0.00;0.00;;;7.10;99.90;;;;;;5074064;28;20028;-72
2022/02/21 12:46:28;;;;;;;0.20;0.20;;;7.20;99.90;;;;;;5073790;28;20040;-74
2022/02/21 12:48:55;;;;;;;0.00;0.00;;;7.10;99.90;;;;;;5074067;28;20397;-73
2022/02/21 12:51:31;;;;;;;0.45;0.45;;;7.10;99.90;;;;;;5074102;28;20035;-72
2022/02/21 12:54:11;;;;;;;0.00;0.00;;;7.00;99.90;;;;;;5073793;28;20036;-72
2022/02/21 12:56:45;;;;;;;0.55;0.55;;;7.00;99.90;;;;;;5072352;28;20047;-72
2022/02/21 12:59:12;;;;;;;0.00;0.00;;;7.00;99.90;;;;;;5073710;28;20033;-72
2022/02/21 13:01:38;;;;;;;0.00;0.00;;;7.00;99.90;;;;;;5072695;28;20104;-73